sensor_id;sensor_type;location;lat;lon;timestamp;pressure;altitude;pressure_sealevel;temperature;humidity
74065;BME280;62421;51.412;5.432;2023-06-19T00:01:18;100686.75;;;20.65;73.06
74065;BME280;62421;51.412;5.432;2023-06-19T00:03:43;100695.25;;;20.62;72.98
74065;BME280;62421;51.412;5.432;2023-06-19T00:06:09;100697.50;;;20.59;73.49
74065;BME280;62421;51.412;5.432;2023-06-19T00:08:34;100705.69;;;20.51;74.17
74065;BME280;62421;51.412;5.432;2023-06-19T00:11:01;100711.31;;;20.41;74.68
74065;BME280;62421;51.412;5.432;2023-06-19T00:13:27;100707.78;;;20.32;74.56
74065;BME280;62421;51.412;5.432;2023-06-19T00:15:52;100709.88;;;20.22;75.54
74065;BME280;62421;51.412;5.432;2023-06-19T00:18:18;100713.44;;;20.14;75.37
74065;BME280;62421;51.412;5.432;2023-06-19T00:20:45;100722.84;;;20.03;77.30
74065;BME280;62421;51.412;5.432;2023-06-19T00:23:11;100734.41;;;19.97;76.77
74065;BME280;62421;51.412;5.432;2023-06-19T00:25:40;100730.00;;;19.88;77.00
74065;BME280;62421;51.412;5.432;2023-06-19T00:28:05;100733.06;;;19.85;76.72
74065;BME280;62421;51.412;5.432;2023-06-19T00:30:38;100734.94;;;19.76;77.77
74065;BME280;62421;51.412;5.432;2023-06-19T00:33:04;100730.00;;;19.72;77.68
74065;BME280;62421;51.412;5.432;2023-06-19T00:35:30;100741.53;;;19.65;77.59
74065;BME280;62421;51.412;5.432;2023-06-19T00:37:55;100744.25;;;19.57;78.08
74065;BME280;62421;51.412;5.432;2023-06-19T00:40:32;100739.31;;;19.53;77.57
74065;BME280;62421;51.412;5.432;2023-06-19T00:42:58;100746.81;;;19.42;79.52
74065;BME280;62421;51.412;5.432;2023-06-19T00:45:24;100742.03;;;19.36;79.62
74065;BME280;62421;51.412;5.432;2023-06-19T00:47:51;100743.88;;;19.28;80.20
74065;BME280;62421;51.412;5.432;2023-06-19T00:50:17;100754.09;;;19.26;79.74
74065;BME280;62421;51.412;5.432;2023-06-19T00:52:43;100750.00;;;19.21;80.60
74065;BME280;62421;51.412;5.432;2023-06-19T00:55:09;100759.81;;;19.14;80.35
74065;BME280;62421;51.412;5.432;2023-06-19T00:57:35;100767.31;;;19.12;80.37
74065;BME280;62421;51.412;5.432;2023-06-19T01:00:01;100770.34;;;19.09;80.90
74065;BME280;62421;51.412;5.432;2023-06-19T01:02:30;100757.41;;;19.03;80.76
74065;BME280;62421;51.412;5.432;2023-06-19T01:04:56;100769.97;;;18.96;81.69
74065;BME280;62421;51.412;5.432;2023-06-19T01:07:51;100771.84;;;18.95;79.41
74065;BME280;62421;51.412;5.432;2023-06-19T01:10:21;100764.00;;;18.92;80.85
74065;BME280;62421;51.412;5.432;2023-06-19T01:13:01;100761.09;;;18.86;81.49
74065;BME280;62421;51.412;5.432;2023-06-19T01:15:29;100774.16;;;18.82;81.70
74065;BME280;62421;51.412;5.432;2023-06-19T01:17:56;100775.31;;;18.79;81.63
74065;BME280;62421;51.412;5.432;2023-06-19T01:20:23;100766.31;;;18.79;81.86
74065;BME280;62421;51.412;5.432;2023-06-19T01:22:49;100773.91;;;18.75;81.86
74065;BME280;62421;51.412;5.432;2023-06-19T01:25:14;100779.69;;;18.72;82.37
74065;BME280;62421;51.412;5.432;2023-06-19T01:27:41;100769.81;;;18.71;82.56
74065;BME280;62421;51.412;5.432;2023-06-19T01:30:09;100775.25;;;18.71;82.00
74065;BME280;62421;51.412;5.432;2023-06-19T01:35:35;100781.38;;;18.73;82.46
74065;BME280;62421;51.412;5.432;2023-06-19T01:38:01;100776.81;;;18.74;83.18
74065;BME280;62421;51.412;5.432;2023-06-19T01:40:28;100775.63;;;18.76;83.39
74065;BME280;62421;51.412;5.432;2023-06-19T01:42:57;100786.22;;;18.79;83.84
74065;BME280;62421;51.412;5.432;2023-06-19T01:45:29;100787.97;;;18.89;83.88
74065;BME280;62421;51.412;5.432;2023-06-19T01:47:55;100791.59;;;18.97;83.62
74065;BME280;62421;51.412;5.432;2023-06-19T01:50:22;100778.16;;;19.04;83.91
74065;BME280;62421;51.412;5.432;2023-06-19T01:52:47;100789.09;;;19.12;83.58
74065;BME280;62421;51.412;5.432;2023-06-19T01:55:13;100790.81;;;19.21;83.22
74065;BME280;62421;51.412;5.432;2023-06-19T01:57:39;100797.78;;;19.24;83.57
74065;BME280;62421;51.412;5.432;2023-06-19T02:00:05;100801.53;;;19.23;83.32
74065;BME280;62421;51.412;5.432;2023-06-19T02:02:33;100798.78;;;19.15;84.04
74065;BME280;62421;51.412;5.432;2023-06-19T02:04:58;100811.16;;;19.09;84.55
74065;BME280;62421;51.412;5.432;2023-06-19T02:07:23;100819.00;;;19.04;84.58
74065;BME280;62421;51.412;5.432;2023-06-19T02:09:49;100818.13;;;19.03;85.57
74065;BME280;62421;51.412;5.432;2023-06-19T02:12:14;100827.16;;;19.04;85.54
74065;BME280;62421;51.412;5.432;2023-06-19T02:14:39;100827.50;;;19.09;85.62
74065;BME280;62421;51.412;5.432;2023-06-19T02:17:05;100840.31;;;19.17;85.12
74065;BME280;62421;51.412;5.432;2023-06-19T02:19:30;100844.22;;;19.22;85.17
74065;BME280;62421;51.412;5.432;2023-06-19T02:21:56;100825.84;;;19.24;84.83
74065;BME280;62421;51.412;5.432;2023-06-19T02:24:21;100827.53;;;19.17;85.50
74065;BME280;62421;51.412;5.432;2023-06-19T02:26:46;100820.56;;;19.15;85.68
74065;BME280;62421;51.412;5.432;2023-06-19T02:29:11;100825.97;;;19.07;86.32
74065;BME280;62421;51.412;5.432;2023-06-19T02:31:37;100816.06;;;18.97;86.59
74065;BME280;62421;51.412;5.432;2023-06-19T02:34:02;100818.91;;;18.88;87.41
74065;BME280;62421;51.412;5.432;2023-06-19T02:36:27;100817.84;;;18.80;87.56
74065;BME280;62421;51.412;5.432;2023-06-19T02:38:55;100818.75;;;18.71;88.73
74065;BME280;62421;51.412;5.432;2023-06-19T02:41:20;100818.56;;;18.65;89.15
74065;BME280;62421;51.412;5.432;2023-06-19T02:43:45;100811.91;;;18.59;89.68
74065;BME280;62421;51.412;5.432;2023-06-19T02:46:12;100813.41;;;18.53;89.94
74065;BME280;62421;51.412;5.432;2023-06-19T02:48:37;100822.88;;;18.49;90.13
74065;BME280;62421;51.412;5.432;2023-06-19T02:51:02;100833.41;;;18.44;90.74
74065;BME280;62421;51.412;5.432;2023-06-19T02:53:28;100837.91;;;18.35;91.43
74065;BME280;62421;51.412;5.432;2023-06-19T02:55:53;100833.81;;;18.31;92.22
74065;BME280;62421;51.412;5.432;2023-06-19T02:58:18;100839.53;;;18.28;92.17
74065;BME280;62421;51.412;5.432;2023-06-19T03:00:44;100841.56;;;18.26;92.02
74065;BME280;62421;51.412;5.432;2023-06-19T03:03:09;100851.06;;;18.22;93.11
74065;BME280;62421;51.412;5.432;2023-06-19T03:05:35;100850.81;;;18.15;94.11
74065;BME280;62421;51.412;5.432;2023-06-19T03:08:00;100841.13;;;18.13;94.60
74065;BME280;62421;51.412;5.432;2023-06-19T03:10:25;100855.03;;;18.10;94.84
74065;BME280;62421;51.412;5.432;2023-06-19T03:12:51;100853.50;;;18.07;94.96
74065;BME280;62421;51.412;5.432;2023-06-19T03:15:16;100855.34;;;18.07;95.15
74065;BME280;62421;51.412;5.432;2023-06-19T03:17:41;100851.75;;;18.06;95.61
74065;BME280;62421;51.412;5.432;2023-06-19T03:20:07;100849.75;;;18.08;95.67
74065;BME280;62421;51.412;5.432;2023-06-19T03:22:37;100855.72;;;18.12;96.10
74065;BME280;62421;51.412;5.432;2023-06-19T03:25:02;100861.41;;;18.18;96.19
74065;BME280;62421;51.412;5.432;2023-06-19T03:27:28;100857.34;;;18.23;96.27
74065;BME280;62421;51.412;5.432;2023-06-19T03:29:54;100854.16;;;18.27;96.28
74065;BME280;62421;51.412;5.432;2023-06-19T03:32:19;100855.16;;;18.26;96.62
74065;BME280;62421;51.412;5.432;2023-06-19T03:34:45;100864.19;;;18.27;96.54
74065;BME280;62421;51.412;5.432;2023-06-19T03:37:11;100867.59;;;18.29;97.10
74065;BME280;62421;51.412;5.432;2023-06-19T03:39:37;100868.81;;;18.34;97.06
74065;BME280;62421;51.412;5.432;2023-06-19T03:42:03;100878.22;;;18.40;97.25
74065;BME280;62421;51.412;5.432;2023-06-19T03:44:28;100874.03;;;18.46;97.08
74065;BME280;62421;51.412;5.432;2023-06-19T03:46:53;100872.66;;;18.50;96.55
74065;BME280;62421;51.412;5.432;2023-06-19T03:49:19;100878.81;;;18.52;96.42
74065;BME280;62421;51.412;5.432;2023-06-19T03:51:44;100883.63;;;18.58;96.82
74065;BME280;62421;51.412;5.432;2023-06-19T03:54:10;100892.16;;;18.63;96.68
74065;BME280;62421;51.412;5.432;2023-06-19T03:56:35;100897.81;;;18.70;96.22
74065;BME280;62421;51.412;5.432;2023-06-19T03:59:00;100893.59;;;18.75;95.76
74065;BME280;62421;51.412;5.432;2023-06-19T04:01:27;100894.28;;;18.77;96.60
74065;BME280;62421;51.412;5.432;2023-06-19T04:03:52;100896.75;;;18.80;96.23
74065;BME280;62421;51.412;5.432;2023-06-19T04:06:17;100902.88;;;18.82;96.06
74065;BME280;62421;51.412;5.432;2023-06-19T04:08:43;100906.09;;;18.86;96.16
74065;BME280;62421;51.412;5.432;2023-06-19T04:11:08;100903.94;;;18.90;96.36
74065;BME280;62421;51.412;5.432;2023-06-19T04:13:33;100898.34;;;18.91;96.18
74065;BME280;62421;51.412;5.432;2023-06-19T04:15:59;100907.88;;;18.95;96.81
74065;BME280;62421;51.412;5.432;2023-06-19T04:18:24;100910.13;;;19.00;96.48
74065;BME280;62421;51.412;5.432;2023-06-19T04:20:49;100910.63;;;19.03;95.67
74065;BME280;62421;51.412;5.432;2023-06-19T04:23:15;100911.16;;;19.07;96.05
74065;BME280;62421;51.412;5.432;2023-06-19T04:25:40;100918.00;;;19.11;95.55
74065;BME280;62421;51.412;5.432;2023-06-19T04:28:06;100928.56;;;19.14;97.31
74065;BME280;62421;51.412;5.432;2023-06-19T04:30:31;100932.16;;;19.15;96.44
74065;BME280;62421;51.412;5.432;2023-06-19T04:32:57;100933.84;;;19.16;96.20
74065;BME280;62421;51.412;5.432;2023-06-19T04:35:23;100936.56;;;19.16;95.93
74065;BME280;62421;51.412;5.432;2023-06-19T04:37:49;100937.25;;;19.18;95.71
74065;BME280;62421;51.412;5.432;2023-06-19T04:40:14;100942.56;;;19.19;96.20
74065;BME280;62421;51.412;5.432;2023-06-19T04:42:40;100933.19;;;19.22;96.93
74065;BME280;62421;51.412;5.432;2023-06-19T04:45:06;100946.97;;;19.20;96.73
74065;BME280;62421;51.412;5.432;2023-06-19T04:47:35;100937.25;;;19.18;96.94
74065;BME280;62421;51.412;5.432;2023-06-19T04:50:00;100947.84;;;19.21;97.27
74065;BME280;62421;51.412;5.432;2023-06-19T04:52:26;100940.53;;;19.21;96.50
74065;BME280;62421;51.412;5.432;2023-06-19T04:54:51;100954.50;;;19.27;97.59
74065;BME280;62421;51.412;5.432;2023-06-19T04:57:17;100945.13;;;19.29;96.89
74065;BME280;62421;51.412;5.432;2023-06-19T04:59:43;100946.38;;;19.35;97.17
74065;BME280;62421;51.412;5.432;2023-06-19T05:02:10;100939.91;;;19.36;97.19
74065;BME280;62421;51.412;5.432;2023-06-19T05:04:35;100945.72;;;19.41;97.50
74065;BME280;62421;51.412;5.432;2023-06-19T05:07:01;100951.88;;;19.43;96.97
74065;BME280;62421;51.412;5.432;2023-06-19T05:09:26;100948.81;;;19.46;96.02
74065;BME280;62421;51.412;5.432;2023-06-19T05:11:52;100953.75;;;19.51;95.89
74065;BME280;62421;51.412;5.432;2023-06-19T05:14:17;100954.28;;;19.54;96.11
74065;BME280;62421;51.412;5.432;2023-06-19T05:16:43;100971.31;;;19.56;95.18
74065;BME280;62421;51.412;5.432;2023-06-19T05:19:08;100965.53;;;19.59;97.02
74065;BME280;62421;51.412;5.432;2023-06-19T05:21:33;100960.63;;;19.63;95.18
74065;BME280;62421;51.412;5.432;2023-06-19T05:23:59;100964.56;;;19.69;95.40
74065;BME280;62421;51.412;5.432;2023-06-19T05:26:24;100979.28;;;19.76;96.57
74065;BME280;62421;51.412;5.432;2023-06-19T05:28:51;100972.31;;;19.81;94.96
74065;BME280;62421;51.412;5.432;2023-06-19T05:31:16;100970.78;;;19.87;94.29
74065;BME280;62421;51.412;5.432;2023-06-19T05:33:43;100974.03;;;19.91;93.41
74065;BME280;62421;51.412;5.432;2023-06-19T05:36:09;100973.88;;;19.92;93.42
74065;BME280;62421;51.412;5.432;2023-06-19T05:38:34;100978.31;;;19.93;92.95
74065;BME280;62421;51.412;5.432;2023-06-19T05:41:00;100974.88;;;19.91;92.94
74065;BME280;62421;51.412;5.432;2023-06-19T05:43:25;100979.16;;;19.86;93.47
74065;BME280;62421;51.412;5.432;2023-06-19T05:45:51;100982.53;;;19.79;93.88
74065;BME280;62421;51.412;5.432;2023-06-19T05:48:17;100985.22;;;19.71;94.94
74065;BME280;62421;51.412;5.432;2023-06-19T05:50:43;100983.25;;;19.63;95.43
74065;BME280;62421;51.412;5.432;2023-06-19T05:53:08;100977.81;;;19.55;95.87
74065;BME280;62421;51.412;5.432;2023-06-19T05:55:33;100985.97;;;19.55;96.83
74065;BME280;62421;51.412;5.432;2023-06-19T05:57:59;100982.91;;;19.58;97.79
74065;BME280;62421;51.412;5.432;2023-06-19T06:00:24;100975.31;;;19.70;97.58
74065;BME280;62421;51.412;5.432;2023-06-19T06:02:50;100973.50;;;19.79;96.46
74065;BME280;62421;51.412;5.432;2023-06-19T06:05:16;100972.50;;;19.88;94.59
74065;BME280;62421;51.412;5.432;2023-06-19T06:07:44;100981.91;;;20.02;92.82
74065;BME280;62421;51.412;5.432;2023-06-19T06:10:10;100992.69;;;20.12;92.68
74065;BME280;62421;51.412;5.432;2023-06-19T06:12:35;100993.19;;;20.23;92.58
74065;BME280;62421;51.412;5.432;2023-06-19T06:15:03;100999.38;;;20.34;92.45
74065;BME280;62421;51.412;5.432;2023-06-19T06:17:29;101010.28;;;20.42;89.74
74065;BME280;62421;51.412;5.432;2023-06-19T06:19:54;101011.69;;;20.54;88.10
74065;BME280;62421;51.412;5.432;2023-06-19T06:22:19;101021.28;;;20.75;87.17
74065;BME280;62421;51.412;5.432;2023-06-19T06:24:45;101017.88;;;20.89;85.34
74065;BME280;62421;51.412;5.432;2023-06-19T06:27:12;101019.41;;;21.00;83.37
74065;BME280;62421;51.412;5.432;2023-06-19T06:29:38;101015.78;;;21.07;83.44
74065;BME280;62421;51.412;5.432;2023-06-19T06:32:05;101023.97;;;21.16;82.23
74065;BME280;62421;51.412;5.432;2023-06-19T06:34:34;101032.34;;;21.14;81.96
74065;BME280;62421;51.412;5.432;2023-06-19T06:37:02;101033.69;;;21.18;83.48
74065;BME280;62421;51.412;5.432;2023-06-19T06:39:28;101034.38;;;21.37;81.38
74065;BME280;62421;51.412;5.432;2023-06-19T06:41:53;101040.16;;;21.50;80.22
74065;BME280;62421;51.412;5.432;2023-06-19T06:44:19;101038.13;;;21.52;78.68
74065;BME280;62421;51.412;5.432;2023-06-19T06:46:44;101042.75;;;21.52;78.68
74065;BME280;62421;51.412;5.432;2023-06-19T06:49:11;101042.22;;;21.56;78.16
74065;BME280;62421;51.412;5.432;2023-06-19T06:51:37;101046.31;;;21.60;77.34
74065;BME280;62421;51.412;5.432;2023-06-19T06:54:02;101036.59;;;21.58;76.52
74065;BME280;62421;51.412;5.432;2023-06-19T06:56:27;101038.78;;;21.54;77.38
74065;BME280;62421;51.412;5.432;2023-06-19T06:58:53;101052.47;;;21.54;76.70
74065;BME280;62421;51.412;5.432;2023-06-19T07:01:18;101055.88;;;21.48;77.06
74065;BME280;62421;51.412;5.432;2023-06-19T07:03:43;101066.13;;;21.46;77.05
74065;BME280;62421;51.412;5.432;2023-06-19T07:06:09;101059.78;;;21.37;76.27
74065;BME280;62421;51.412;5.432;2023-06-19T07:08:34;101063.72;;;21.35;77.15
74065;BME280;62421;51.412;5.432;2023-06-19T07:10:59;101068.50;;;21.33;76.01
74065;BME280;62421;51.412;5.432;2023-06-19T07:13:25;101073.13;;;21.32;75.61
74065;BME280;62421;51.412;5.432;2023-06-19T07:15:50;101080.13;;;21.35;74.98
74065;BME280;62421;51.412;5.432;2023-06-19T07:18:16;101081.31;;;21.40;77.24
74065;BME280;62421;51.412;5.432;2023-06-19T07:20:41;101070.38;;;21.40;74.65
74065;BME280;62421;51.412;5.432;2023-06-19T07:23:06;101075.34;;;21.37;74.12
74065;BME280;62421;51.412;5.432;2023-06-19T07:25:32;101081.13;;;21.34;75.06
74065;BME280;62421;51.412;5.432;2023-06-19T07:27:59;101091.22;;;21.33;74.63
74065;BME280;62421;51.412;5.432;2023-06-19T07:30:26;101091.72;;;21.28;72.80
74065;BME280;62421;51.412;5.432;2023-06-19T07:32:51;101092.75;;;21.19;73.56
74065;BME280;62421;51.412;5.432;2023-06-19T07:35:17;101091.41;;;21.15;73.73
74065;BME280;62421;51.412;5.432;2023-06-19T07:37:42;101094.13;;;21.15;74.92
74065;BME280;62421;51.412;5.432;2023-06-19T07:40:08;101097.88;;;21.31;75.08
74065;BME280;62421;51.412;5.432;2023-06-19T07:42:34;101094.66;;;21.52;74.02
74065;BME280;62421;51.412;5.432;2023-06-19T07:44:59;101093.06;;;21.74;71.73
74065;BME280;62421;51.412;5.432;2023-06-19T07:47:26;101086.88;;;21.88;70.68
74065;BME280;62421;51.412;5.432;2023-06-19T07:49:51;101076.91;;;22.03;71.22
74065;BME280;62421;51.412;5.432;2023-06-19T07:52:17;101081.81;;;22.24;71.76
74065;BME280;62421;51.412;5.432;2023-06-19T07:54:51;101080.34;;;22.37;69.85
74065;BME280;62421;51.412;5.432;2023-06-19T07:57:17;101084.94;;;22.44;68.33
74065;BME280;62421;51.412;5.432;2023-06-19T07:59:43;101092.19;;;22.60;68.12
74065;BME280;62421;51.412;5.432;2023-06-19T08:02:10;101091.31;;;22.68;67.17
74065;BME280;62421;51.412;5.432;2023-06-19T08:04:35;101101.88;;;22.71;67.16
74065;BME280;62421;51.412;5.432;2023-06-19T08:07:00;101098.13;;;22.72;66.36
74065;BME280;62421;51.412;5.432;2023-06-19T08:09:26;101097.03;;;22.81;68.17
74065;BME280;62421;51.412;5.432;2023-06-19T08:11:51;101090.44;;;22.90;66.49
74065;BME280;62421;51.412;5.432;2023-06-19T08:14:16;101097.81;;;22.90;65.02
74065;BME280;62421;51.412;5.432;2023-06-19T08:16:42;101092.72;;;22.87;65.52
74065;BME280;62421;51.412;5.432;2023-06-19T08:19:07;101104.88;;;22.84;66.31
74065;BME280;62421;51.412;5.432;2023-06-19T08:21:32;101094.72;;;22.70;64.53
74065;BME280;62421;51.412;5.432;2023-06-19T08:23:58;101092.19;;;22.60;65.69
74065;BME280;62421;51.412;5.432;2023-06-19T08:26:23;101095.97;;;22.59;66.04
74065;BME280;62421;51.412;5.432;2023-06-19T08:28:49;101098.66;;;22.67;66.18
74065;BME280;62421;51.412;5.432;2023-06-19T08:31:14;101107.63;;;22.84;65.61
74065;BME280;62421;51.412;5.432;2023-06-19T08:33:39;101104.91;;;22.99;64.26
74065;BME280;62421;51.412;5.432;2023-06-19T08:36:05;101108.81;;;23.13;64.26
74065;BME280;62421;51.412;5.432;2023-06-19T08:38:30;101107.50;;;23.24;63.93
74065;BME280;62421;51.412;5.432;2023-06-19T08:40:56;101103.66;;;23.33;63.16
74065;BME280;62421;51.412;5.432;2023-06-19T08:43:21;101114.38;;;23.43;62.45
74065;BME280;62421;51.412;5.432;2023-06-19T08:46:14;101132.81;;;23.49;62.49
74065;BME280;62421;51.412;5.432;2023-06-19T08:48:40;101142.94;;;23.63;61.68
74065;BME280;62421;51.412;5.432;2023-06-19T08:51:05;101144.81;;;23.86;59.99
74065;BME280;62421;51.412;5.432;2023-06-19T08:53:35;101145.28;;;24.04;60.26
74065;BME280;62421;51.412;5.432;2023-06-19T08:56:02;101144.03;;;24.07;61.19
74065;BME280;62421;51.412;5.432;2023-06-19T08:58:28;101125.50;;;24.09;60.65
74065;BME280;62421;51.412;5.432;2023-06-19T09:00:53;101128.72;;;24.12;61.27
74065;BME280;62421;51.412;5.432;2023-06-19T09:03:20;101132.81;;;24.17;61.54
74065;BME280;62421;51.412;5.432;2023-06-19T09:05:49;101132.22;;;24.06;59.62
74065;BME280;62421;51.412;5.432;2023-06-19T09:08:16;101130.53;;;23.90;58.95
74065;BME280;62421;51.412;5.432;2023-06-19T09:10:42;101136.50;;;23.79;60.64
74065;BME280;62421;51.412;5.432;2023-06-19T09:13:07;101151.03;;;23.80;60.91
74065;BME280;62421;51.412;5.432;2023-06-19T09:15:37;101150.31;;;23.86;60.78
74065;BME280;62421;51.412;5.432;2023-06-19T09:20:29;101145.00;;;23.84;59.45
74065;BME280;62421;51.412;5.432;2023-06-19T09:22:58;101149.41;;;23.85;59.62
74065;BME280;62421;51.412;5.432;2023-06-19T09:25:24;101151.91;;;23.95;60.04
74065;BME280;62421;51.412;5.432;2023-06-19T09:27:52;101161.75;;;24.04;58.96
74065;BME280;62421;51.412;5.432;2023-06-19T09:30:17;101164.66;;;24.18;57.90
74065;BME280;62421;51.412;5.432;2023-06-19T09:32:42;101169.63;;;24.22;59.92
74065;BME280;62421;51.412;5.432;2023-06-19T09:35:08;101161.94;;;24.18;58.63
74065;BME280;62421;51.412;5.432;2023-06-19T09:37:34;101172.06;;;24.17;58.24
74065;BME280;62421;51.412;5.432;2023-06-19T09:40:04;101173.09;;;24.16;58.84
74065;BME280;62421;51.412;5.432;2023-06-19T09:42:41;101171.97;;;24.10;58.50
74065;BME280;62421;51.412;5.432;2023-06-19T09:45:09;101164.31;;;24.06;58.58
74065;BME280;62421;51.412;5.432;2023-06-19T09:47:36;101167.22;;;24.04;56.25
74065;BME280;62421;51.412;5.432;2023-06-19T09:50:03;101172.44;;;24.14;57.70
74065;BME280;62421;51.412;5.432;2023-06-19T09:52:29;101179.16;;;24.26;57.40
74065;BME280;62421;51.412;5.432;2023-06-19T09:54:55;101166.19;;;24.35;57.15
74065;BME280;62421;51.412;5.432;2023-06-19T09:57:23;101174.91;;;24.53;58.65
74065;BME280;62421;51.412;5.432;2023-06-19T09:59:55;101168.16;;;24.71;57.74
74065;BME280;62421;51.412;5.432;2023-06-19T10:02:26;101177.41;;;24.85;56.49
74065;BME280;62421;51.412;5.432;2023-06-19T10:04:54;101179.97;;;25.08;58.44
74065;BME280;62421;51.412;5.432;2023-06-19T10:07:32;101167.16;;;25.15;55.32
74065;BME280;62421;51.412;5.432;2023-06-19T10:10:03;101170.94;;;25.14;54.93
74065;BME280;62421;51.412;5.432;2023-06-19T10:15:14;101173.22;;;25.25;55.19
74065;BME280;62421;51.412;5.432;2023-06-19T10:17:46;101168.03;;;25.37;54.17
74065;BME280;62421;51.412;5.432;2023-06-19T10:20:29;101168.34;;;25.49;53.13
74065;BME280;62421;51.412;5.432;2023-06-19T10:23:20;101163.97;;;25.54;53.85
74065;BME280;62421;51.412;5.432;2023-06-19T10:25:54;101171.22;;;25.62;50.77
74065;BME280;62421;51.412;5.432;2023-06-19T10:28:20;101167.97;;;25.80;50.73
74065;BME280;62421;51.412;5.432;2023-06-19T10:31:02;101171.84;;;25.86;51.63
74065;BME280;62421;51.412;5.432;2023-06-19T10:33:34;101182.25;;;25.90;49.10
74065;BME280;62421;51.412;5.432;2023-06-19T10:36:16;101181.66;;;25.95;50.81
74065;BME280;62421;51.412;5.432;2023-06-19T10:38:42;101172.16;;;25.98;48.96
74065;BME280;62421;51.412;5.432;2023-06-19T10:41:19;101173.38;;;25.88;50.22
74065;BME280;62421;51.412;5.432;2023-06-19T10:44:03;101179.63;;;26.10;52.08
74065;BME280;62421;51.412;5.432;2023-06-19T10:46:34;101171.09;;;26.33;50.26
74065;BME280;62421;51.412;5.432;2023-06-19T10:49:01;101169.91;;;26.49;48.61
74065;BME280;62421;51.412;5.432;2023-06-19T10:51:30;101174.44;;;26.64;51.06
74065;BME280;62421;51.412;5.432;2023-06-19T10:53:56;101170.44;;;26.66;48.10
74065;BME280;62421;51.412;5.432;2023-06-19T10:56:23;101153.25;;;26.58;47.97
74065;BME280;62421;51.412;5.432;2023-06-19T10:58:48;101156.47;;;26.68;48.66
74065;BME280;62421;51.412;5.432;2023-06-19T11:01:14;101160.78;;;26.97;48.28
74065;BME280;62421;51.412;5.432;2023-06-19T11:03:39;101157.03;;;27.25;49.97
74065;BME280;62421;51.412;5.432;2023-06-19T11:06:05;101159.16;;;27.29;45.07
74065;BME280;62421;51.412;5.432;2023-06-19T11:08:30;101157.00;;;27.18;44.55
74065;BME280;62421;51.412;5.432;2023-06-19T11:10:55;101150.69;;;27.24;47.09
74065;BME280;62421;51.412;5.432;2023-06-19T11:13:21;101145.72;;;26.93;44.96
74065;BME280;62421;51.412;5.432;2023-06-19T11:15:48;101144.78;;;26.59;46.51
74065;BME280;62421;51.412;5.432;2023-06-19T11:18:18;101144.72;;;26.52;46.35
74065;BME280;62421;51.412;5.432;2023-06-19T11:20:46;101157.38;;;26.40;46.77
74065;BME280;62421;51.412;5.432;2023-06-19T11:23:12;101152.03;;;26.32;46.45
74065;BME280;62421;51.412;5.432;2023-06-19T11:25:39;101152.44;;;26.29;45.55
74065;BME280;62421;51.412;5.432;2023-06-19T11:28:11;101146.28;;;26.20;47.39
74065;BME280;62421;51.412;5.432;2023-06-19T11:30:38;101142.56;;;26.06;48.59
74065;BME280;62421;51.412;5.432;2023-06-19T11:33:17;101150.59;;;25.73;48.61
74065;BME280;62421;51.412;5.432;2023-06-19T11:35:53;101147.53;;;25.61;50.05
74065;BME280;62421;51.412;5.432;2023-06-19T11:38:25;101141.38;;;25.59;50.85
74065;BME280;62421;51.412;5.432;2023-06-19T11:40:51;101147.56;;;25.68;48.34
74065;BME280;62421;51.412;5.432;2023-06-19T11:43:27;101149.34;;;25.75;49.71
74065;BME280;62421;51.412;5.432;2023-06-19T11:45:54;101143.34;;;25.93;49.44
74065;BME280;62421;51.412;5.432;2023-06-19T11:48:25;101135.84;;;26.15;49.30
74065;BME280;62421;51.412;5.432;2023-06-19T11:50:51;101141.00;;;26.25;46.44
74065;BME280;62421;51.412;5.432;2023-06-19T11:53:17;101142.28;;;26.29;46.53
74065;BME280;62421;51.412;5.432;2023-06-19T11:55:43;101134.28;;;26.41;46.33
74065;BME280;62421;51.412;5.432;2023-06-19T11:58:09;101130.19;;;26.24;44.41
74065;BME280;62421;51.412;5.432;2023-06-19T12:00:36;101132.97;;;25.95;46.32
74065;BME280;62421;51.412;5.432;2023-06-19T12:03:01;101139.69;;;25.86;45.59
74065;BME280;62421;51.412;5.432;2023-06-19T12:05:27;101119.34;;;25.87;46.72
74065;BME280;62421;51.412;5.432;2023-06-19T12:07:52;101129.44;;;26.02;45.92
74065;BME280;62421;51.412;5.432;2023-06-19T12:10:18;101128.16;;;26.04;43.24
74065;BME280;62421;51.412;5.432;2023-06-19T12:12:43;101127.75;;;26.01;44.90
74065;BME280;62421;51.412;5.432;2023-06-19T12:15:09;101126.22;;;25.98;44.79
74065;BME280;62421;51.412;5.432;2023-06-19T12:17:34;101133.59;;;25.91;45.08
74065;BME280;62421;51.412;5.432;2023-06-19T12:20:00;101129.59;;;25.93;44.93
74065;BME280;62421;51.412;5.432;2023-06-19T12:22:26;101139.84;;;26.13;46.35
74065;BME280;62421;51.412;5.432;2023-06-19T12:24:52;101142.28;;;26.29;45.40
74065;BME280;62421;51.412;5.432;2023-06-19T12:27:17;101139.63;;;26.49;44.67
74065;BME280;62421;51.412;5.432;2023-06-19T12:29:43;101142.47;;;26.69;43.81
74065;BME280;62421;51.412;5.432;2023-06-19T12:32:08;101132.31;;;26.70;43.55
74065;BME280;62421;51.412;5.432;2023-06-19T12:34:34;101133.38;;;26.75;42.51
74065;BME280;62421;51.412;5.432;2023-06-19T12:36:59;101126.22;;;26.88;42.19
74065;BME280;62421;51.412;5.432;2023-06-19T12:39:24;101125.84;;;27.04;43.29
74065;BME280;62421;51.412;5.432;2023-06-19T12:41:51;101132.00;;;27.20;42.12
74065;BME280;62421;51.412;5.432;2023-06-19T12:44:16;101122.91;;;27.26;41.88
74065;BME280;62421;51.412;5.432;2023-06-19T12:46:42;101117.97;;;27.08;40.19
74065;BME280;62421;51.412;5.432;2023-06-19T12:49:07;101116.91;;;26.95;41.80
74065;BME280;62421;51.412;5.432;2023-06-19T12:51:33;101109.47;;;26.89;40.36
74065;BME280;62421;51.412;5.432;2023-06-19T12:53:59;101117.97;;;27.01;40.89
74065;BME280;62421;51.412;5.432;2023-06-19T12:56:24;101115.47;;;27.13;41.53